createdAt,value
2022-11-12T00:00:23.053Z,7.42
2022-11-12T00:03:08.942Z,7.35
2022-11-12T00:05:54.762Z,7.30
2022-11-12T00:08:40.457Z,7.30
2022-11-12T00:11:25.884Z,7.24
2022-11-12T00:14:11.463Z,7.17
2022-11-12T00:16:56.783Z,7.13
2022-11-12T00:19:42.225Z,7.16
2022-11-12T00:22:27.803Z,7.12
2022-11-12T00:25:13.431Z,7.09
2022-11-12T00:28:04.627Z,7.05
2022-11-12T00:30:50.433Z,7.06
2022-11-12T00:33:40.282Z,7.01
2022-11-12T00:36:25.993Z,6.94
2022-11-12T00:39:11.554Z,6.89
2022-11-12T00:41:57.256Z,6.91
2022-11-12T00:44:42.697Z,6.95
2022-11-12T00:47:28.377Z,6.97
2022-11-12T00:50:16.191Z,7.03
2022-11-12T00:53:01.940Z,7.12
2022-11-12T00:55:47.574Z,7.14
2022-11-12T00:58:35.313Z,7.14
2022-11-12T01:01:22.071Z,7.15
2022-11-12T01:04:08.215Z,7.09
2022-11-12T01:06:53.784Z,7.06
2022-11-12T01:09:40.222Z,7.01
2022-11-12T01:12:26.013Z,7.00
2022-11-12T01:15:11.574Z,6.99
2022-11-12T01:17:57.193Z,6.96
2022-11-12T01:20:42.856Z,6.99
2022-11-12T01:23:29.055Z,6.94
2022-11-12T01:26:16.858Z,6.90
2022-11-12T01:29:02.835Z,6.86
2022-11-12T01:31:48.553Z,6.85
2022-11-12T01:34:34.254Z,6.81
2022-11-12T01:37:20.015Z,6.83
2022-11-12T01:40:06.450Z,6.86
2022-11-12T01:42:53.835Z,6.83
2022-11-12T01:45:45.593Z,6.78
2022-11-12T01:48:31.093Z,6.76
2022-11-12T01:51:16.895Z,6.76
2022-11-12T01:54:07.374Z,6.73
2022-11-12T01:56:53.353Z,6.71
2022-11-12T01:59:44.033Z,6.62
2022-11-12T02:02:29.454Z,6.63
2022-11-12T02:05:16.782Z,6.65
2022-11-12T02:08:03.854Z,6.63
2022-11-12T02:10:50.933Z,6.59
2022-11-12T02:13:55.015Z,6.54
2022-11-12T02:16:43.373Z,6.57
2022-11-12T02:19:29.115Z,6.60
2022-11-12T02:22:14.533Z,6.60
2022-11-12T02:24:59.913Z,6.60
2022-11-12T02:27:46.308Z,6.57
2022-11-12T02:30:49.199Z,6.49
2022-11-12T02:33:34.749Z,6.46
2022-11-12T02:36:20.970Z,6.46
2022-11-12T02:39:06.830Z,6.40
2022-11-12T02:41:52.450Z,6.43
2022-11-12T02:44:37.980Z,6.43
2022-11-12T02:47:23.898Z,6.42
2022-11-12T02:50:10.287Z,6.45
2022-11-12T02:52:55.749Z,6.46
2022-11-12T02:55:43.228Z,6.51
2022-11-12T02:58:30.017Z,6.55
2022-11-12T03:01:15.912Z,6.57
2022-11-12T03:04:02.028Z,6.54
2022-11-12T03:06:47.830Z,6.52
2022-11-12T03:09:34.597Z,6.53
2022-11-12T03:12:20.149Z,6.46
2022-11-12T03:15:05.969Z,6.46
2022-11-12T03:17:51.590Z,6.43
2022-11-12T03:20:37.248Z,6.48
2022-11-12T03:23:23.288Z,6.55
2022-11-12T03:26:08.809Z,6.61
2022-11-12T03:28:54.659Z,6.62
2022-11-12T03:31:40.457Z,6.60
2022-11-12T03:34:26.428Z,6.58
2022-11-12T03:37:12.068Z,6.54
2022-11-12T03:39:57.830Z,6.48
2022-11-12T03:42:48.649Z,6.46
2022-11-12T03:45:34.157Z,6.40
2022-11-12T03:48:19.788Z,6.44
2022-11-12T03:51:05.618Z,6.46
2022-11-12T03:53:51.150Z,6.51
2022-11-12T03:56:36.541Z,6.53
2022-11-12T03:59:22.329Z,6.54
2022-11-12T04:02:07.809Z,6.57
2022-11-12T04:05:12.945Z,6.58
2022-11-12T04:08:18.937Z,6.59
2022-11-12T04:11:13.430Z,6.60
2022-11-12T04:14:00.269Z,6.64
2022-11-12T04:17:04.858Z,6.65
2022-11-12T04:20:09.110Z,6.70
2022-11-12T04:22:54.896Z,6.75
2022-11-12T04:26:00.130Z,6.83
2022-11-12T04:29:05.649Z,6.87
2022-11-12T04:31:51.449Z,6.92
2022-11-12T04:34:37.263Z,6.99
2022-11-12T04:37:25.209Z,7.07
2022-11-12T04:40:33.794Z,7.15
2022-11-12T04:43:38.233Z,7.26
2022-11-12T04:46:23.790Z,7.32
2022-11-12T04:49:09.358Z,7.41
2022-11-12T04:52:07.030Z,7.50
2022-11-12T04:54:53.808Z,7.57
2022-11-12T04:57:39.335Z,7.63
2022-11-12T05:00:25.016Z,7.68
2022-11-12T05:03:10.629Z,7.72
2022-11-12T05:06:02.371Z,7.71
2022-11-12T05:08:48.068Z,7.70
2022-11-12T05:11:33.349Z,7.72
2022-11-12T05:14:19.328Z,7.77
2022-11-12T05:17:05.355Z,7.82
2022-11-12T05:19:50.729Z,7.87
2022-11-12T05:22:45.652Z,7.94
2022-11-12T05:25:36.362Z,7.94
2022-11-12T05:28:22.047Z,7.86
2022-11-12T05:31:07.496Z,7.86
2022-11-12T05:33:53.045Z,7.85
2022-11-12T05:36:38.860Z,7.88
2022-11-12T05:39:24.646Z,7.91
2022-11-12T05:42:13.525Z,7.96
2022-11-12T05:44:59.668Z,7.99
2022-11-12T05:47:45.192Z,8.03
2022-11-12T05:50:39.937Z,8.06
2022-11-12T05:53:36.484Z,8.12
2022-11-12T05:56:22.606Z,8.18
2022-11-12T05:59:10.244Z,8.24
2022-11-12T06:01:56.114Z,8.29
2022-11-12T06:04:42.007Z,8.35
2022-11-12T06:07:27.723Z,8.39
2022-11-12T06:10:19.112Z,8.39
2022-11-12T06:13:06.283Z,8.42
2022-11-12T06:15:53.277Z,8.44
2022-11-12T06:18:38.718Z,8.47
2022-11-12T06:21:24.645Z,8.47
2022-11-12T06:24:10.427Z,8.48
2022-11-12T06:26:55.743Z,8.50
2022-11-12T06:29:41.346Z,8.51
2022-11-12T06:32:27.201Z,8.54
2022-11-12T06:35:13.118Z,8.54
2022-11-12T06:37:58.563Z,8.58
2022-11-12T06:40:44.265Z,8.63
2022-11-12T06:43:31.949Z,8.69
2022-11-12T06:46:17.753Z,8.72
2022-11-12T06:49:04.138Z,8.79
2022-11-12T06:51:52.643Z,8.84
2022-11-12T06:54:38.043Z,8.90
2022-11-12T06:57:23.755Z,8.86
2022-11-12T07:00:11.975Z,8.89
2022-11-12T07:02:57.438Z,8.90
2022-11-12T07:05:43.555Z,8.98
2022-11-12T07:08:29.614Z,9.05
2022-11-12T07:11:15.305Z,9.15
2022-11-12T07:14:00.917Z,9.24
2022-11-12T07:16:46.454Z,9.33
2022-11-12T07:19:31.757Z,9.43
2022-11-12T07:22:17.384Z,9.47
2022-11-12T07:25:02.868Z,9.60
2022-11-12T07:27:50.228Z,9.62
2022-11-12T07:30:35.497Z,9.75
2022-11-12T07:33:20.986Z,9.86
2022-11-12T07:36:09.465Z,9.94
2022-11-12T07:38:54.975Z,10.01
2022-11-12T07:41:40.756Z,10.08
2022-11-12T07:44:26.246Z,10.18
2022-11-12T07:47:12.312Z,10.25
2022-11-12T07:49:57.924Z,10.34
2022-11-12T07:52:43.548Z,10.42
2022-11-12T07:55:28.812Z,10.54
2022-11-12T07:58:14.414Z,10.66
2022-11-12T08:01:11.211Z,10.78
2022-11-12T08:03:57.475Z,10.88
2022-11-12T08:06:43.233Z,10.99
2022-11-12T08:09:29.165Z,11.11
2022-11-12T08:12:14.496Z,11.15
2022-11-12T08:15:00.305Z,11.30
2022-11-12T08:17:46.316Z,11.44
2022-11-12T08:20:31.746Z,11.51
2022-11-12T08:23:17.115Z,11.58
2022-11-12T08:26:04.824Z,11.65
2022-11-12T08:28:50.380Z,11.78
2022-11-12T08:31:36.516Z,11.87
2022-11-12T08:34:22.916Z,12.00
2022-11-12T08:37:08.677Z,12.16
2022-11-12T08:39:54.395Z,12.33
2022-11-12T08:42:40.116Z,12.49
2022-11-12T08:45:26.399Z,12.62
2022-11-12T08:48:14.615Z,12.72
2022-11-12T08:51:05.477Z,12.90
2022-11-12T08:53:51.012Z,13.01
2022-11-12T08:56:36.894Z,13.17
2022-11-12T08:59:22.323Z,13.32
2022-11-12T09:02:13.696Z,13.52
2022-11-12T09:04:59.178Z,13.68
2022-11-12T09:07:50.084Z,13.79
2022-11-12T09:10:37.117Z,13.91
2022-11-12T09:13:22.679Z,13.93
2022-11-12T09:16:10.433Z,14.10
2022-11-12T09:18:56.235Z,14.20
2022-11-12T09:21:41.546Z,14.40
2022-11-12T09:24:27.318Z,14.49
2022-11-12T09:27:12.700Z,14.57
2022-11-12T09:29:58.178Z,14.70
2022-11-12T09:32:43.734Z,14.87
2022-11-12T09:35:29.648Z,15.00
2022-11-12T09:38:15.675Z,15.11
2022-11-12T09:41:16.367Z,15.33
2022-11-12T09:44:10.374Z,15.62
2022-11-12T09:47:02.195Z,15.96
2022-11-12T09:49:57.537Z,16.22
2022-11-12T09:52:47.506Z,16.54
2022-11-12T09:55:41.256Z,16.84
2022-11-12T09:58:28.105Z,17.15
2022-11-12T10:01:24.480Z,17.41
2022-11-12T10:04:22.156Z,17.58
2022-11-12T10:07:39.485Z,17.76
2022-11-12T10:10:37.080Z,17.81
2022-11-12T10:13:38.777Z,17.76
2022-11-12T10:16:51.394Z,17.60
2022-11-12T10:19:39.933Z,17.60
2022-11-12T10:22:48.955Z,17.45
2022-11-12T10:25:35.667Z,17.39
2022-11-12T10:28:38.369Z,17.37
2022-11-12T10:31:24.936Z,17.44
2022-11-12T10:34:13.666Z,17.62
2022-11-12T10:37:08.016Z,17.79
2022-11-12T10:39:53.820Z,17.97
2022-11-12T10:43:00.870Z,18.11
2022-11-12T10:45:48.729Z,18.37
2022-11-12T10:48:35.217Z,18.61
2022-11-12T10:51:27.287Z,18.83
2022-11-12T10:54:27.825Z,19.01
2022-11-12T10:57:20.812Z,19.24
2022-11-12T11:00:24.572Z,19.45
2022-11-12T11:03:22.145Z,19.62
2022-11-12T11:06:22.906Z,19.77
2022-11-12T11:09:17.388Z,19.64
2022-11-12T11:12:03.664Z,19.52
2022-11-12T11:15:07.672Z,19.31
2022-11-12T11:17:53.227Z,19.12
2022-11-12T11:20:51.444Z,18.86
2022-11-12T11:23:47.490Z,18.58
2022-11-12T11:26:52.095Z,18.52
2022-11-12T11:30:02.203Z,18.31
2022-11-12T11:33:24.125Z,18.51
2022-11-12T11:36:29.895Z,18.74
2022-11-12T11:39:39.846Z,19.00
2022-11-12T11:42:37.447Z,19.42
2022-11-12T11:45:47.564Z,19.88
2022-11-12T11:48:39.412Z,20.32
2022-11-12T11:51:43.243Z,20.70
2022-11-12T11:54:47.496Z,21.03
2022-11-12T11:57:55.646Z,21.36
2022-11-12T12:13:56.055Z,21.83
2022-11-12T12:16:56.688Z,21.69
2022-11-12T12:19:49.184Z,21.53
2022-11-12T12:22:57.735Z,21.52
2022-11-12T12:25:46.747Z,21.50
2022-11-12T12:29:07.310Z,21.40
2022-11-12T12:32:03.169Z,21.24
2022-11-12T12:34:56.645Z,20.99
2022-11-12T12:38:14.665Z,20.91
2022-11-12T12:41:17.145Z,20.86
2022-11-12T12:44:09.503Z,20.80
2022-11-12T12:47:01.355Z,20.73
2022-11-12T12:49:50.098Z,21.06
2022-11-12T12:53:15.709Z,22.36
2022-11-12T12:56:26.056Z,23.79
2022-11-12T12:59:23.364Z,25.07
2022-11-12T13:02:18.886Z,26.62
2022-11-12T13:05:04.874Z,27.56
2022-11-12T13:07:51.963Z,28.24
2022-11-12T13:10:37.421Z,28.92
2022-11-12T13:13:32.956Z,29.83
2022-11-12T13:16:49.765Z,30.12
2022-11-12T13:19:35.449Z,31.66
2022-11-12T13:22:20.914Z,31.51
2022-11-12T13:25:12.577Z,30.72
2022-11-12T13:28:10.296Z,30.73
2022-11-12T13:30:57.076Z,29.19
2022-11-12T13:33:42.836Z,27.96
2022-11-12T13:36:31.439Z,26.93
2022-11-12T13:39:20.398Z,25.61
2022-11-12T13:42:37.237Z,24.53
2022-11-12T13:45:27.106Z,23.27
2022-11-12T13:48:18.163Z,22.52
2022-11-12T13:51:07.806Z,21.89
2022-11-12T13:53:53.535Z,21.20
2022-11-12T13:56:39.463Z,20.69
2022-11-12T13:59:26.556Z,20.12
2022-11-12T14:02:21.226Z,19.77
2022-11-12T14:05:19.578Z,19.39
2022-11-12T14:08:36.783Z,19.02
2022-11-12T14:11:46.294Z,18.56
2022-11-12T14:14:52.805Z,18.24
2022-11-12T14:18:16.786Z,17.90
2022-11-12T14:21:20.714Z,17.59
2022-11-12T14:24:10.874Z,17.37
2022-11-12T14:26:56.345Z,17.17
2022-11-12T14:29:43.865Z,17.08
2022-11-12T14:32:35.955Z,16.95
2022-11-12T14:35:29.424Z,16.85
2022-11-12T14:38:23.089Z,16.68
2022-11-12T14:41:11.844Z,16.64
2022-11-12T14:44:12.657Z,16.47
2022-11-12T14:46:59.885Z,16.39
2022-11-12T14:49:49.667Z,16.24
2022-11-12T14:52:41.266Z,16.08
2022-11-12T14:55:30.875Z,15.94
2022-11-12T14:58:19.005Z,15.81
2022-11-12T15:02:08.499Z,15.73
2022-11-12T15:04:37.424Z,15.55
2022-11-12T15:07:28.755Z,15.43
2022-11-12T15:10:35.251Z,15.34
2022-11-12T15:13:27.749Z,15.23
2022-11-12T15:16:23.413Z,15.11
2022-11-12T15:19:24.582Z,14.97
2022-11-12T15:22:22.325Z,14.82
2022-11-12T15:25:30.150Z,14.65
2022-11-12T15:28:22.804Z,14.51
2022-11-12T15:31:18.856Z,14.35
2022-11-12T15:34:27.585Z,14.18
2022-11-12T15:37:19.381Z,14.04
2022-11-12T15:40:18.806Z,13.92
2022-11-12T15:43:11.498Z,13.80
2022-11-12T15:45:57.304Z,13.70
2022-11-12T15:48:43.204Z,13.61
2022-11-12T15:51:28.784Z,13.50
2022-11-12T15:54:14.232Z,13.37
2022-11-12T15:57:00.124Z,13.32
2022-11-12T15:59:48.164Z,13.21
2022-11-12T16:02:33.735Z,13.15
2022-11-12T16:05:19.505Z,13.05
2022-11-12T16:08:05.447Z,13.00
2022-11-12T16:10:51.117Z,12.94
2022-11-12T16:13:37.104Z,12.87
2022-11-12T16:16:22.734Z,12.80
2022-11-12T16:19:14.606Z,12.77
2022-11-12T16:22:03.993Z,12.69
2022-11-12T16:24:49.964Z,12.60
2022-11-12T16:27:38.283Z,12.58
2022-11-12T16:30:26.905Z,12.51
2022-11-12T16:33:13.671Z,12.44
2022-11-12T16:35:59.441Z,12.37
2022-11-12T16:38:46.325Z,12.30
2022-11-12T16:41:32.284Z,12.22
2022-11-12T16:44:18.023Z,12.18
2022-11-12T16:47:04.738Z,12.12
2022-11-12T16:49:50.226Z,12.06
2022-11-12T16:52:35.685Z,11.97
2022-11-12T16:55:22.097Z,11.89
2022-11-12T16:58:07.994Z,11.82
2022-11-12T17:00:53.730Z,11.77
2022-11-12T17:03:39.263Z,11.74
2022-11-12T17:06:36.896Z,11.70
2022-11-12T17:09:22.184Z,11.64
2022-11-12T17:12:08.273Z,11.62
2022-11-12T17:14:54.004Z,11.60
2022-11-12T17:17:39.705Z,11.56
2022-11-12T17:20:25.056Z,11.53
2022-11-12T17:23:10.464Z,11.45
2022-11-12T17:26:03.203Z,11.35
2022-11-12T17:28:51.611Z,11.25
2022-11-12T17:31:41.004Z,11.18
2022-11-12T17:34:26.444Z,11.12
2022-11-12T17:37:11.894Z,11.10
2022-11-12T17:39:57.205Z,11.06
2022-11-12T17:42:42.873Z,10.98
2022-11-12T17:45:28.484Z,10.92
2022-11-12T17:48:13.965Z,10.86
2022-11-12T17:51:14.762Z,10.82
2022-11-12T17:54:00.124Z,10.79
2022-11-12T17:56:45.611Z,10.76
2022-11-12T17:59:31.166Z,10.74
2022-11-12T18:02:16.534Z,10.72
2022-11-12T18:05:01.997Z,10.73
2022-11-12T18:07:47.465Z,10.76
2022-11-12T18:10:32.943Z,10.76
2022-11-12T18:13:18.503Z,10.76
2022-11-12T18:16:24.165Z,10.78
2022-11-12T18:19:11.315Z,10.76
2022-11-12T18:21:57.235Z,10.74
2022-11-12T18:24:42.893Z,10.71
2022-11-12T18:27:28.315Z,10.67
2022-11-12T18:30:18.984Z,10.67
2022-11-12T18:33:05.116Z,10.54
2022-11-12T18:36:01.308Z,10.53
2022-11-12T18:38:50.225Z,10.48
2022-11-12T18:41:35.638Z,10.37
2022-11-12T18:44:25.860Z,10.30
2022-11-12T18:47:11.869Z,10.27
2022-11-12T18:49:57.475Z,10.24
2022-11-12T18:52:43.724Z,10.22
2022-11-12T18:55:29.132Z,10.21
2022-11-12T18:58:14.504Z,10.18
2022-11-12T19:01:07.759Z,10.15
2022-11-12T19:03:55.466Z,10.14
2022-11-12T19:06:41.627Z,10.12
2022-11-12T19:09:27.265Z,10.11
2022-11-12T19:12:12.824Z,10.11
2022-11-12T19:14:58.126Z,10.11
2022-11-12T19:17:43.654Z,10.12
2022-11-12T19:20:30.974Z,10.19
2022-11-12T19:23:16.919Z,10.23
2022-11-12T19:26:04.217Z,10.27
2022-11-12T19:28:50.004Z,10.31
2022-11-12T19:31:35.713Z,10.33
2022-11-12T19:34:21.263Z,10.36
2022-11-12T19:37:27.105Z,10.36
2022-11-12T19:40:12.446Z,10.38
2022-11-12T19:42:58.244Z,10.36
2022-11-12T19:45:43.857Z,10.37
2022-11-12T19:48:31.283Z,10.30
2022-11-12T19:51:17.065Z,10.09
2022-11-12T19:54:04.579Z,10.10
2022-11-12T19:56:50.662Z,10.11
2022-11-12T19:59:36.303Z,10.10
2022-11-12T20:02:22.003Z,10.04
2022-11-12T20:05:07.953Z,9.95
2022-11-12T20:07:54.035Z,9.75
2022-11-12T20:10:39.445Z,9.79
2022-11-12T20:13:25.135Z,9.74
2022-11-12T20:16:19.473Z,9.68
2022-11-12T20:19:09.103Z,9.62
2022-11-12T20:21:54.704Z,9.59
2022-11-12T20:24:40.344Z,9.58
2022-11-12T20:27:26.405Z,9.61
2022-11-12T20:30:12.403Z,9.58
2022-11-12T20:32:57.871Z,9.54
2022-11-12T20:35:43.243Z,9.55
2022-11-12T20:38:29.218Z,9.53
2022-11-12T20:41:17.994Z,9.47
2022-11-12T20:44:03.864Z,9.38
2022-11-12T20:46:49.650Z,9.34
2022-11-12T20:49:35.462Z,9.31
2022-11-12T20:52:20.896Z,9.27
2022-11-12T20:55:07.044Z,9.20
2022-11-12T20:57:52.445Z,9.16
2022-11-12T21:00:39.116Z,9.14
2022-11-12T21:03:24.564Z,9.05
2022-11-12T21:06:13.465Z,9.08
2022-11-12T21:09:00.716Z,9.11
2022-11-12T21:11:46.184Z,9.11
2022-11-12T21:14:31.684Z,9.12
2022-11-12T21:17:17.265Z,9.16
2022-11-12T21:20:03.363Z,9.12
2022-11-12T21:22:48.966Z,9.17
2022-11-12T21:25:41.236Z,9.24
2022-11-12T21:28:27.152Z,9.29
2022-11-12T21:31:24.943Z,9.31
2022-11-12T21:34:10.764Z,9.35
2022-11-12T21:36:56.503Z,9.40
2022-11-12T21:39:41.944Z,9.43
2022-11-12T21:42:28.283Z,9.42
2022-11-12T21:45:13.993Z,9.45
2022-11-12T21:47:59.629Z,9.48
2022-11-12T21:50:45.212Z,9.45
2022-11-12T21:53:30.914Z,9.51
2022-11-12T21:56:18.325Z,9.48
2022-11-12T21:59:04.614Z,9.48
2022-11-12T22:01:49.957Z,9.47
2022-11-12T22:04:35.487Z,9.38
2022-11-12T22:07:20.909Z,9.42
2022-11-12T22:10:07.086Z,9.36
2022-11-12T22:13:19.813Z,9.33
2022-11-12T22:15:58.437Z,9.29
2022-11-12T22:18:46.855Z,9.26
2022-11-12T22:21:39.378Z,9.30
2022-11-12T22:24:25.334Z,9.35
2022-11-12T22:27:10.646Z,9.40
2022-11-12T22:29:56.015Z,9.41
2022-11-12T22:32:41.596Z,9.47
2022-11-12T22:35:26.902Z,9.54
2022-11-12T22:38:12.483Z,9.61
2022-11-12T22:41:03.048Z,9.71
2022-11-12T22:43:50.745Z,9.76
2022-11-12T22:46:36.915Z,9.72
2022-11-12T22:49:22.803Z,9.64
2022-11-12T22:52:08.285Z,9.66
2022-11-12T22:54:53.825Z,9.71
2022-11-12T22:57:39.225Z,9.69
2022-11-12T23:00:31.237Z,9.67
2022-11-12T23:03:16.613Z,9.64
2022-11-12T23:06:04.783Z,9.62
2022-11-12T23:08:50.787Z,9.62
2022-11-12T23:11:38.318Z,9.65
2022-11-12T23:14:24.084Z,9.67
2022-11-12T23:17:09.841Z,9.68
2022-11-12T23:19:55.466Z,9.71
2022-11-12T23:22:41.012Z,9.74
2022-11-12T23:25:26.417Z,9.80
2022-11-12T23:28:11.914Z,9.80
2022-11-12T23:30:57.525Z,9.82
2022-11-12T23:33:48.213Z,9.87
2022-11-12T23:36:33.645Z,9.87
2022-11-12T23:39:19.064Z,9.87
2022-11-12T23:42:04.695Z,9.89
2022-11-12T23:44:50.365Z,9.90
2022-11-12T23:47:35.804Z,9.87
2022-11-12T23:50:21.373Z,9.85
2022-11-12T23:53:06.707Z,9.84
2022-11-12T23:55:52.489Z,9.86
2022-11-12T23:58:40.424Z,9.88
